createdAt,value
2018-06-02T00:00:36.218Z,21.41
2018-06-02T00:03:03.703Z,21.25
2018-06-02T00:05:31.097Z,21.16
2018-06-02T00:07:58.610Z,21.10
2018-06-02T00:10:26.022Z,21.03
2018-06-02T00:12:53.434Z,21.00
2018-06-02T00:15:20.837Z,21.16
2018-06-02T00:17:48.317Z,21.01
2018-06-02T00:20:15.773Z,21.06
2018-06-02T00:22:43.254Z,21.13
2018-06-02T00:25:10.649Z,21.16
2018-06-02T00:27:38.073Z,21.20
2018-06-02T00:30:05.483Z,21.21
2018-06-02T00:32:32.893Z,21.19
2018-06-02T00:35:00.686Z,21.17
2018-06-02T00:37:28.088Z,21.07
2018-06-02T00:39:55.484Z,21.06
2018-06-02T00:42:22.920Z,21.05
2018-06-02T00:44:50.382Z,21.20
2018-06-02T00:47:17.798Z,21.19
2018-06-02T00:49:45.214Z,21.24
2018-06-02T00:52:12.605Z,21.21
2018-06-02T00:54:51.850Z,21.22
2018-06-02T00:57:19.255Z,21.17
2018-06-02T00:59:46.761Z,20.92
2018-06-02T01:02:14.170Z,20.65
2018-06-02T01:04:41.565Z,20.68
2018-06-02T01:07:09.054Z,20.71
2018-06-02T01:09:36.499Z,20.75
2018-06-02T01:12:03.893Z,20.73
2018-06-02T01:14:31.293Z,20.75
2018-06-02T01:16:58.706Z,20.73
2018-06-02T01:19:26.110Z,20.79
2018-06-02T01:21:53.564Z,20.83
2018-06-02T01:24:21.024Z,20.76
2018-06-02T01:26:48.544Z,20.75
2018-06-02T01:29:16.045Z,20.79
2018-06-02T01:31:43.498Z,20.72
2018-06-02T01:34:10.919Z,20.45
2018-06-02T01:36:38.313Z,20.52
2018-06-02T01:39:05.760Z,20.60
2018-06-02T01:41:33.213Z,20.63
2018-06-02T01:44:00.613Z,20.75
2018-06-02T01:46:28.055Z,20.67
2018-06-02T01:48:55.448Z,20.77
2018-06-02T01:51:22.866Z,20.73
2018-06-02T01:53:50.278Z,20.80
2018-06-02T01:56:18.679Z,20.77
2018-06-02T01:58:46.085Z,20.83
2018-06-02T02:01:14.102Z,20.86
2018-06-02T02:03:41.518Z,20.91
2018-06-02T02:06:08.929Z,21.00
2018-06-02T02:08:36.354Z,20.90
2018-06-02T02:11:03.830Z,20.83
2018-06-02T02:13:31.247Z,20.64
2018-06-02T02:15:58.725Z,20.69
2018-06-02T02:18:26.418Z,20.71
2018-06-02T02:20:53.985Z,20.59
2018-06-02T02:23:21.397Z,20.71
2018-06-02T02:25:48.796Z,20.72
2018-06-02T02:28:16.204Z,20.62
2018-06-02T02:30:43.607Z,20.80
2018-06-02T02:33:11.064Z,20.82
2018-06-02T02:35:38.466Z,20.73
2018-06-02T02:38:05.958Z,20.74
2018-06-02T02:40:33.509Z,20.49
2018-06-02T02:43:00.909Z,20.64
2018-06-02T02:45:28.338Z,20.53
2018-06-02T02:47:55.743Z,20.63
2018-06-02T02:50:23.144Z,20.75
2018-06-02T02:52:50.604Z,20.75
2018-06-02T02:55:18.024Z,20.85
2018-06-02T02:57:45.518Z,20.77
2018-06-02T03:00:12.917Z,20.78
2018-06-02T03:02:40.328Z,20.81
2018-06-02T03:05:07.737Z,20.99
2018-06-02T03:07:35.152Z,21.01
2018-06-02T03:10:02.596Z,21.14
2018-06-02T03:12:30.007Z,21.09
2018-06-02T03:14:57.406Z,21.05
2018-06-02T03:17:24.881Z,21.04
2018-06-02T03:19:52.355Z,20.88
2018-06-02T03:22:19.744Z,20.85
2018-06-02T03:24:47.144Z,20.95
2018-06-02T03:27:14.584Z,20.95
2018-06-02T03:29:41.981Z,20.90
2018-06-02T03:32:09.401Z,20.91
2018-06-02T03:34:36.857Z,20.66
2018-06-02T03:37:04.256Z,20.84
2018-06-02T03:39:32.625Z,20.53
2018-06-02T03:42:00.049Z,20.78
2018-06-02T03:44:27.525Z,20.74
2018-06-02T03:46:54.973Z,20.78
2018-06-02T03:49:22.418Z,20.74
2018-06-02T03:51:49.828Z,20.80
2018-06-02T03:54:17.226Z,20.87
2018-06-02T03:56:44.654Z,20.99
2018-06-02T03:59:12.067Z,21.04
2018-06-02T04:01:39.477Z,20.97
2018-06-02T04:04:06.964Z,20.92
2018-06-02T04:06:34.357Z,20.98
2018-06-02T04:09:01.794Z,20.86
2018-06-02T04:11:29.192Z,20.80
2018-06-02T04:13:56.601Z,21.01
2018-06-02T04:16:24.038Z,21.08
2018-06-02T04:18:51.496Z,21.18
2018-06-02T04:21:18.911Z,21.23
2018-06-02T04:23:46.409Z,21.23
2018-06-02T04:26:13.861Z,21.34
2018-06-02T04:28:41.319Z,21.43
2018-06-02T04:31:08.720Z,21.54
2018-06-02T04:33:36.155Z,21.62
2018-06-02T04:36:03.628Z,21.73
2018-06-02T04:38:31.030Z,21.69
2018-06-02T04:40:58.451Z,21.67
2018-06-02T04:43:26.450Z,21.66
2018-06-02T04:45:53.869Z,21.71
2018-06-02T04:48:21.460Z,21.61
2018-06-02T04:50:48.846Z,21.49
2018-06-02T04:53:16.282Z,21.54
2018-06-02T04:55:43.689Z,21.45
2018-06-02T04:58:11.113Z,21.57
2018-06-02T05:00:38.509Z,21.60
2018-06-02T05:03:05.917Z,21.52
2018-06-02T05:08:00.022Z,21.47
2018-06-02T05:10:27.418Z,21.60
2018-06-02T05:12:54.826Z,21.59
2018-06-02T05:15:22.228Z,21.69
2018-06-02T05:17:49.646Z,21.35
2018-06-02T05:20:17.040Z,21.34
2018-06-02T05:22:44.485Z,21.26
2018-06-02T05:25:11.869Z,21.07
2018-06-02T05:30:00.461Z,20.89
2018-06-02T05:32:27.855Z,21.08
2018-06-02T05:34:55.257Z,21.22
2018-06-02T05:37:22.662Z,21.21
2018-06-02T05:39:50.184Z,21.16
2018-06-02T05:42:17.625Z,21.25
2018-06-02T05:44:45.051Z,21.28
2018-06-02T05:47:12.536Z,21.33
2018-06-02T05:49:39.929Z,21.19
2018-06-02T05:52:07.358Z,21.30
2018-06-02T05:54:34.874Z,21.24
2018-06-02T05:57:02.261Z,21.32
2018-06-02T05:59:29.666Z,21.13
2018-06-02T06:01:57.125Z,21.26
2018-06-02T06:04:24.533Z,21.38
2018-06-02T06:06:52.009Z,21.27
2018-06-02T06:09:19.440Z,21.11
2018-06-02T06:11:46.850Z,21.15
2018-06-02T06:14:14.318Z,21.20
2018-06-02T06:16:41.725Z,21.03
2018-06-02T06:19:09.169Z,20.93
2018-06-02T06:21:36.577Z,20.65
2018-06-02T06:24:03.994Z,20.64
2018-06-02T06:26:31.441Z,20.66
2018-06-02T06:28:58.849Z,20.60
2018-06-02T06:31:26.381Z,20.55
2018-06-02T06:33:53.785Z,20.60
2018-06-02T06:36:21.189Z,20.43
2018-06-02T06:38:48.625Z,20.28
2018-06-02T06:41:16.049Z,20.26
2018-06-02T06:43:43.459Z,20.27
2018-06-02T06:46:10.910Z,20.35
2018-06-02T06:48:38.350Z,20.23
2018-06-02T06:51:05.744Z,20.10
2018-06-02T06:53:33.265Z,20.09
2018-06-02T06:56:00.661Z,20.26
2018-06-02T06:58:28.198Z,19.97
2018-06-02T07:00:55.585Z,19.85
2018-06-02T07:03:22.981Z,19.82
2018-06-02T07:05:50.482Z,19.85
2018-06-02T07:08:17.877Z,19.72
2018-06-02T07:10:45.281Z,19.64
2018-06-02T07:13:12.714Z,19.45
2018-06-02T07:15:40.239Z,19.45
2018-06-02T07:18:07.640Z,19.63
2018-06-02T07:20:35.093Z,19.58
2018-06-02T07:23:02.516Z,19.54
2018-06-02T07:25:29.929Z,19.71
2018-06-02T07:27:57.328Z,19.67
2018-06-02T07:30:24.825Z,19.58
2018-06-02T07:32:52.221Z,19.65
2018-06-02T07:35:19.665Z,19.65
2018-06-02T07:37:47.061Z,19.69
2018-06-02T07:40:14.544Z,19.87
2018-06-02T07:42:41.999Z,20.12
2018-06-02T07:45:09.402Z,19.94
2018-06-02T07:47:36.844Z,20.20
2018-06-02T07:50:04.296Z,20.27
2018-06-02T07:52:31.673Z,20.10
2018-06-02T07:54:59.093Z,19.86
2018-06-02T07:57:26.525Z,19.92
2018-06-02T07:59:53.925Z,20.02
2018-06-02T08:02:21.337Z,20.03
2018-06-02T08:04:48.746Z,19.93
2018-06-02T08:07:16.149Z,20.04
2018-06-02T08:09:43.586Z,20.03
2018-06-02T08:12:11.026Z,20.11
2018-06-02T08:14:38.429Z,20.17
2018-06-02T08:17:05.896Z,20.13
2018-06-02T08:19:33.341Z,20.08
2018-06-02T08:22:00.749Z,20.09
2018-06-02T08:24:28.158Z,20.13
2018-06-02T08:26:55.562Z,20.20
2018-06-02T08:29:22.981Z,20.30
2018-06-02T08:31:50.377Z,20.36
2018-06-02T08:34:17.776Z,20.32
2018-06-02T08:36:45.260Z,20.39
2018-06-02T08:39:12.673Z,20.19
2018-06-02T08:41:40.086Z,20.14
2018-06-02T08:44:07.537Z,20.13
2018-06-02T08:46:34.989Z,19.94
2018-06-02T08:49:02.408Z,19.83
2018-06-02T08:51:29.827Z,19.77
2018-06-02T08:53:57.333Z,19.67
2018-06-02T08:56:24.812Z,19.60
2018-06-02T08:58:52.241Z,19.74
2018-06-02T09:01:19.705Z,19.92
2018-06-02T09:03:47.101Z,20.03
2018-06-02T09:06:15.194Z,20.02
2018-06-02T09:08:42.623Z,20.22
2018-06-02T09:11:10.138Z,20.29
2018-06-02T09:13:37.552Z,20.29
2018-06-02T09:16:04.970Z,20.48
2018-06-02T09:18:32.366Z,20.17
2018-06-02T09:20:59.788Z,20.36
2018-06-02T09:23:27.190Z,20.76
2018-06-02T09:25:54.609Z,20.82
2018-06-02T09:28:22.115Z,20.68
2018-06-02T09:30:49.572Z,21.05
2018-06-02T09:33:16.957Z,21.23
2018-06-02T09:35:44.384Z,21.48
2018-06-02T09:38:11.788Z,21.56
2018-06-02T09:40:39.192Z,21.57
2018-06-02T09:43:06.590Z,21.66
2018-06-02T09:45:33.997Z,21.61
2018-06-02T09:48:01.445Z,21.47
2018-06-02T09:50:28.858Z,21.62
2018-06-02T09:52:56.267Z,21.49
2018-06-02T09:55:23.686Z,21.47
2018-06-02T09:57:51.179Z,21.49
2018-06-02T10:00:22.540Z,21.47
2018-06-02T10:02:49.981Z,21.38
2018-06-02T10:05:17.413Z,21.06
2018-06-02T10:07:45.114Z,20.95
2018-06-02T10:10:12.517Z,21.01
2018-06-02T10:12:40.043Z,21.05
2018-06-02T10:15:07.473Z,21.24
2018-06-02T10:17:34.928Z,21.21
2018-06-02T10:20:02.398Z,21.32
2018-06-02T10:22:29.849Z,21.37
2018-06-02T10:24:57.253Z,21.52
2018-06-02T10:27:24.658Z,21.59
2018-06-02T10:29:52.109Z,21.57
2018-06-02T10:32:19.578Z,21.79
2018-06-02T10:34:46.997Z,21.83
2018-06-02T10:37:14.391Z,21.95
2018-06-02T10:39:41.877Z,21.79
2018-06-02T10:42:09.292Z,21.77
2018-06-02T10:44:36.718Z,22.03
2018-06-02T10:47:04.109Z,22.21
2018-06-02T10:49:31.512Z,22.27
2018-06-02T10:51:58.929Z,22.23
2018-06-02T10:54:26.347Z,22.33
2018-06-02T10:56:53.750Z,22.44
2018-06-02T10:59:21.151Z,22.65
2018-06-02T11:01:48.643Z,22.74
2018-06-02T11:04:16.014Z,22.65
2018-06-02T11:06:43.448Z,22.73
2018-06-02T11:09:11.262Z,22.69
2018-06-02T11:11:38.700Z,22.32
2018-06-02T11:14:06.215Z,22.44
2018-06-02T11:16:33.617Z,22.06
2018-06-02T11:19:01.032Z,22.10
2018-06-02T11:21:28.535Z,22.23
2018-06-02T11:23:55.961Z,22.23
2018-06-02T11:26:23.376Z,21.73
2018-06-02T11:28:50.806Z,21.87
2018-06-02T11:31:18.216Z,22.15
2018-06-02T11:33:45.608Z,22.23
2018-06-02T11:36:13.078Z,22.30
2018-06-02T11:38:40.510Z,22.34
2018-06-02T11:41:08.018Z,22.40
2018-06-02T11:43:35.558Z,22.58
2018-06-02T11:46:03.021Z,22.37
2018-06-02T11:48:30.423Z,22.22
2018-06-02T11:50:57.825Z,22.37
2018-06-02T11:53:25.221Z,22.31
2018-06-02T11:55:52.637Z,22.22
2018-06-02T11:58:20.064Z,22.31
2018-06-02T12:00:47.480Z,22.53
2018-06-02T12:03:14.886Z,22.42
2018-06-02T12:05:42.353Z,22.22
2018-06-02T12:08:09.780Z,22.35
2018-06-02T12:10:37.289Z,22.33
2018-06-02T12:13:04.687Z,22.44
2018-06-02T12:15:32.093Z,22.61
2018-06-02T12:17:59.514Z,22.69
2018-06-02T12:20:27.025Z,22.92
2018-06-02T12:22:54.431Z,22.89
2018-06-02T12:25:21.833Z,22.97
2018-06-02T12:27:49.228Z,23.37
2018-06-02T12:30:16.718Z,23.50
2018-06-02T12:32:44.201Z,23.13
2018-06-02T12:35:11.601Z,22.74
2018-06-02T12:37:39.010Z,22.45
2018-06-02T12:40:06.414Z,22.38
2018-06-02T12:42:33.958Z,22.64
2018-06-02T12:45:01.361Z,22.34
2018-06-02T12:47:28.759Z,22.46
2018-06-02T12:49:56.190Z,22.28
2018-06-02T12:52:23.601Z,22.34
2018-06-02T12:54:50.996Z,22.32
2018-06-02T12:57:18.472Z,22.32
2018-06-02T12:59:45.916Z,22.00
2018-06-02T13:02:13.509Z,22.15
2018-06-02T13:04:40.901Z,22.36
2018-06-02T13:07:08.389Z,22.43
2018-06-02T13:09:35.832Z,22.18
2018-06-02T13:12:03.433Z,22.29
2018-06-02T13:14:30.885Z,22.46
2018-06-02T13:16:58.330Z,22.62
2018-06-02T13:19:25.778Z,22.54
2018-06-02T13:21:53.273Z,22.30
2018-06-02T13:24:20.939Z,22.15
2018-06-02T13:26:48.337Z,22.28
2018-06-02T13:29:15.770Z,22.25
2018-06-02T13:31:43.218Z,22.28
2018-06-02T13:34:10.613Z,22.16
2018-06-02T13:36:38.027Z,22.28
2018-06-02T13:39:05.417Z,22.40
2018-06-02T13:41:32.830Z,22.27
2018-06-02T13:44:00.270Z,22.34
2018-06-02T13:46:27.679Z,22.29
2018-06-02T13:48:55.073Z,22.33
2018-06-02T13:51:22.657Z,22.41
2018-06-02T13:53:50.027Z,22.44
2018-06-02T13:56:17.432Z,22.36
2018-06-02T13:58:44.900Z,22.18
2018-06-02T14:01:12.377Z,22.30
2018-06-02T14:03:39.777Z,22.17
2018-06-02T14:06:07.176Z,22.40
2018-06-02T14:08:34.568Z,22.40
2018-06-02T14:11:02.023Z,22.51
2018-06-02T14:13:29.441Z,22.47
2018-06-02T14:15:56.866Z,22.41
2018-06-02T14:18:24.367Z,22.57
2018-06-02T14:20:51.822Z,22.67
2018-06-02T14:23:19.239Z,22.69
2018-06-02T14:25:46.702Z,22.60
2018-06-02T14:28:14.100Z,22.57
2018-06-02T14:30:41.612Z,22.82
2018-06-02T14:33:09.011Z,22.63
2018-06-02T14:35:36.434Z,22.61
2018-06-02T14:38:03.889Z,22.48
2018-06-02T14:40:31.330Z,22.52
2018-06-02T14:42:58.734Z,22.46
2018-06-02T14:45:26.134Z,22.34
2018-06-02T14:47:53.550Z,22.24
2018-06-02T14:50:20.961Z,22.28
2018-06-02T14:52:48.366Z,22.36
2018-06-02T14:55:15.839Z,22.33
2018-06-02T14:57:43.236Z,22.39
2018-06-02T15:00:10.670Z,22.31
2018-06-02T15:02:38.093Z,22.45
2018-06-02T15:05:05.545Z,22.43
2018-06-02T15:07:32.993Z,22.45
2018-06-02T15:10:00.506Z,22.43
2018-06-02T15:12:27.962Z,22.53
2018-06-02T15:14:55.377Z,22.31
2018-06-02T15:17:22.837Z,22.23
2018-06-02T15:19:50.232Z,22.31
2018-06-02T15:22:17.644Z,22.34
2018-06-02T15:24:45.054Z,22.51
2018-06-02T15:27:12.451Z,22.68
2018-06-02T15:29:39.916Z,22.68
2018-06-02T15:32:07.426Z,22.51
2018-06-02T15:34:34.932Z,22.63
2018-06-02T15:37:02.336Z,22.69
2018-06-02T15:39:29.882Z,22.67
2018-06-02T15:41:57.289Z,22.68
2018-06-02T15:44:24.697Z,22.78
2018-06-02T15:46:52.112Z,22.90
2018-06-02T15:49:19.642Z,22.92
2018-06-02T15:51:47.178Z,22.99
2018-06-02T15:54:14.593Z,22.90
2018-06-02T15:56:42.018Z,22.83
2018-06-02T15:59:09.453Z,22.89
2018-06-02T16:01:36.861Z,22.71
2018-06-02T16:04:04.266Z,22.71
2018-06-02T16:06:31.772Z,22.35
2018-06-02T16:08:59.172Z,22.57
2018-06-02T16:11:26.584Z,22.58
2018-06-02T16:13:53.989Z,22.50
2018-06-02T16:16:21.425Z,22.49
2018-06-02T16:18:48.916Z,22.51
2018-06-02T16:21:16.374Z,22.61
2018-06-02T16:23:43.837Z,22.50
2018-06-02T16:26:11.253Z,22.56
2018-06-02T16:28:38.745Z,22.51
2018-06-02T16:31:06.162Z,22.47
2018-06-02T16:33:33.609Z,22.38
2018-06-02T16:36:01.022Z,22.35
2018-06-02T16:38:28.477Z,22.29
2018-06-02T16:40:55.885Z,22.28
2018-06-02T16:43:23.289Z,22.35
2018-06-02T16:45:50.681Z,22.48
2018-06-02T16:48:18.124Z,22.49
2018-06-02T16:50:45.584Z,22.53
2018-06-02T16:53:13.031Z,22.62
2018-06-02T16:55:40.472Z,22.57
2018-06-02T16:58:07.878Z,22.54
2018-06-02T17:00:35.276Z,22.48
2018-06-02T17:03:02.718Z,22.44
2018-06-02T17:05:30.213Z,22.46
2018-06-02T17:07:57.649Z,22.58
2018-06-02T17:10:25.114Z,22.40
2018-06-02T17:12:52.539Z,22.44
2018-06-02T17:15:20.039Z,22.38
2018-06-02T17:17:47.445Z,22.37
2018-06-02T17:20:14.959Z,22.36
2018-06-02T17:22:42.361Z,22.36
2018-06-02T17:25:09.854Z,22.43
2018-06-02T17:27:37.337Z,22.45
2018-06-02T17:30:04.769Z,22.45
2018-06-02T17:32:32.170Z,22.44
2018-06-02T17:34:59.596Z,22.34
2018-06-02T17:37:27.012Z,22.36
2018-06-02T17:39:54.408Z,22.33
2018-06-02T17:42:21.864Z,22.42
2018-06-02T17:44:49.262Z,22.36
2018-06-02T17:47:16.664Z,22.43
2018-06-02T17:49:44.065Z,22.33
2018-06-02T17:52:11.533Z,22.26
2018-06-02T17:54:38.918Z,22.22
2018-06-02T17:57:06.340Z,22.29
2018-06-02T17:59:33.725Z,22.27
2018-06-02T18:02:01.144Z,22.35
2018-06-02T18:04:28.896Z,22.35
2018-06-02T18:06:56.320Z,22.43
2018-06-02T18:09:24.069Z,22.29
2018-06-02T18:11:51.545Z,22.37
2018-06-02T18:14:18.999Z,22.38
2018-06-02T18:16:46.397Z,22.30
2018-06-02T18:19:13.800Z,22.24
2018-06-02T18:21:41.198Z,22.12
2018-06-02T18:24:08.601Z,22.09
2018-06-02T18:26:36.002Z,22.17
2018-06-02T18:29:03.415Z,22.17
2018-06-02T18:31:30.808Z,22.13
2018-06-02T18:33:58.227Z,21.98
2018-06-02T18:36:25.640Z,21.90
2018-06-02T18:38:53.075Z,21.80
2018-06-02T18:41:20.491Z,21.74
2018-06-02T18:43:47.890Z,21.85
2018-06-02T18:46:15.294Z,21.65
2018-06-02T18:48:42.701Z,21.66
2018-06-02T18:51:10.139Z,21.64
2018-06-02T18:53:37.575Z,21.58
2018-06-02T18:56:05.067Z,21.43
2018-06-02T18:58:32.485Z,21.33
2018-06-02T19:01:00.009Z,21.38
2018-06-02T19:03:27.433Z,21.14
2018-06-02T19:05:54.832Z,20.99
2018-06-02T19:08:22.246Z,20.96
2018-06-02T19:10:49.657Z,20.86
2018-06-02T19:13:17.060Z,20.81
2018-06-02T19:15:44.475Z,21.05
2018-06-02T19:18:11.921Z,20.94
2018-06-02T19:20:39.318Z,21.05
2018-06-02T19:23:06.743Z,21.11
2018-06-02T19:25:34.160Z,21.14
2018-06-02T19:28:01.614Z,21.14
2018-06-02T19:30:29.039Z,21.16
2018-06-02T19:32:56.744Z,21.19
2018-06-02T19:35:25.080Z,21.22
2018-06-02T19:37:52.450Z,21.35
2018-06-02T19:40:19.840Z,21.23
2018-06-02T19:42:47.352Z,21.22
2018-06-02T19:45:14.750Z,21.29
2018-06-02T19:47:42.301Z,21.38
2018-06-02T19:50:09.682Z,21.40
2018-06-02T19:52:37.114Z,21.38
2018-06-02T19:55:04.518Z,21.37
2018-06-02T19:57:31.951Z,21.41
2018-06-02T19:59:59.378Z,21.43
2018-06-02T20:02:26.818Z,21.42
2018-06-02T20:04:54.290Z,21.49
2018-06-02T20:07:21.721Z,21.49
2018-06-02T20:09:49.169Z,21.52
2018-06-02T20:12:16.643Z,21.68
2018-06-02T20:14:44.079Z,21.75
2018-06-02T20:17:11.466Z,21.80
2018-06-02T20:19:38.861Z,21.85
2018-06-02T20:22:06.470Z,21.90
2018-06-02T20:24:33.838Z,21.75
2018-06-02T20:27:01.279Z,21.69
2018-06-02T20:29:28.677Z,21.79
2018-06-02T20:31:56.077Z,21.84
2018-06-02T20:34:23.537Z,21.81
2018-06-02T20:36:51.030Z,21.71
2018-06-02T20:39:18.468Z,21.77
2018-06-02T20:41:45.873Z,21.71
2018-06-02T20:44:13.270Z,21.71
2018-06-02T20:46:40.722Z,21.69
2018-06-02T20:49:08.173Z,21.54
2018-06-02T20:51:35.656Z,21.55
2018-06-02T20:54:03.056Z,21.60
2018-06-02T20:56:30.452Z,21.47
2018-06-02T20:58:57.866Z,21.30
2018-06-02T21:01:25.293Z,21.36
2018-06-02T21:03:52.717Z,21.42
2018-06-02T21:06:20.202Z,21.34
2018-06-02T21:08:47.642Z,21.30
2018-06-02T21:11:15.109Z,21.14
2018-06-02T21:13:42.595Z,21.24
2018-06-02T21:16:10.012Z,21.24
2018-06-02T21:18:37.434Z,21.23
2018-06-02T21:21:04.862Z,21.27
2018-06-02T21:23:32.283Z,21.31
2018-06-02T21:25:59.740Z,21.26
2018-06-02T21:28:27.139Z,21.13
2018-06-02T21:30:54.537Z,21.10
2018-06-02T21:33:22.009Z,21.15
2018-06-02T21:35:49.410Z,21.20
2018-06-02T21:38:16.811Z,21.21
2018-06-02T21:40:44.206Z,21.19
2018-06-02T21:43:11.721Z,21.17
2018-06-02T21:45:39.125Z,21.18
2018-06-02T21:48:06.635Z,21.24
2018-06-02T21:50:34.037Z,21.25
2018-06-02T21:53:01.553Z,21.22
2018-06-02T21:55:28.980Z,21.25
2018-06-02T21:57:56.377Z,21.24
2018-06-02T22:00:23.783Z,21.20
2018-06-02T22:02:51.189Z,21.13
2018-06-02T22:05:18.683Z,21.14
2018-06-02T22:07:46.103Z,21.10
2018-06-02T22:10:13.503Z,20.93
2018-06-02T22:12:40.905Z,20.93
2018-06-02T22:15:08.371Z,20.84
2018-06-02T22:17:35.824Z,20.91
2018-06-02T22:20:03.292Z,20.88
2018-06-02T22:22:30.677Z,20.94
2018-06-02T22:24:58.086Z,20.84
2018-06-02T22:27:25.489Z,20.86
2018-06-02T22:29:52.908Z,20.84
2018-06-02T22:32:20.365Z,20.80
2018-06-02T22:34:47.765Z,20.67
2018-06-02T22:37:15.173Z,20.60
2018-06-02T22:39:42.642Z,20.61
2018-06-02T22:42:10.061Z,20.65
2018-06-02T22:44:37.469Z,20.63
2018-06-02T22:47:04.869Z,20.56
2018-06-02T22:49:32.291Z,20.51
2018-06-02T22:51:59.681Z,20.49
2018-06-02T22:54:27.107Z,20.46
2018-06-02T22:56:54.493Z,20.53
2018-06-02T22:59:21.912Z,20.48
2018-06-02T23:01:49.337Z,20.53
2018-06-02T23:04:16.801Z,20.51
2018-06-02T23:06:44.215Z,20.56
2018-06-02T23:09:11.622Z,20.63
2018-06-02T23:11:39.037Z,20.67
2018-06-02T23:14:06.464Z,20.70
2018-06-02T23:16:33.864Z,20.61
2018-06-02T23:19:01.269Z,20.77
2018-06-02T23:21:28.673Z,20.82
2018-06-02T23:23:56.184Z,20.89
2018-06-02T23:26:23.614Z,20.78
2018-06-02T23:28:51.065Z,20.81
2018-06-02T23:31:18.490Z,20.88
2018-06-02T23:33:45.877Z,20.89
2018-06-02T23:36:13.297Z,20.85
2018-06-02T23:38:40.790Z,20.76
2018-06-02T23:41:08.256Z,20.67
2018-06-02T23:43:35.647Z,20.57
2018-06-02T23:46:03.153Z,20.58
2018-06-02T23:48:30.566Z,20.47
2018-06-02T23:50:58.037Z,20.42
2018-06-02T23:53:25.438Z,20.38
2018-06-02T23:55:52.853Z,20.39
2018-06-02T23:58:20.266Z,20.28
